createdAt,value
2018-07-25T00:01:06.336Z,6.83
2018-07-25T00:06:09.642Z,6.80
2018-07-25T00:11:12.890Z,6.97
2018-07-25T00:16:16.072Z,7.07
2018-07-25T00:21:19.344Z,6.93
2018-07-25T00:26:22.634Z,7.00
2018-07-25T00:31:25.938Z,7.07
2018-07-25T00:36:29.225Z,7.70
2018-07-25T00:41:32.415Z,7.70
2018-07-25T00:46:35.671Z,6.83
2018-07-25T00:51:38.837Z,6.90
2018-07-25T00:56:42.050Z,6.90
2018-07-25T01:01:45.222Z,7.47
2018-07-25T01:06:48.384Z,7.53
2018-07-25T01:11:51.556Z,7.97
2018-07-25T01:16:54.838Z,8.70
2018-07-25T01:21:58.003Z,7.30
2018-07-25T01:27:01.166Z,8.30
2018-07-25T01:32:04.348Z,8.00
2018-07-25T01:37:07.536Z,9.00
2018-07-25T01:42:11.093Z,8.03
2018-07-25T01:47:14.286Z,8.53
2018-07-25T01:52:17.558Z,8.40
2018-07-25T01:57:21.614Z,7.90
2018-07-25T02:02:24.818Z,8.27
2018-07-25T02:07:27.997Z,8.57
2018-07-25T02:12:31.237Z,8.70
2018-07-25T02:17:34.422Z,8.30
2018-07-25T02:22:37.654Z,8.80
2018-07-25T02:27:40.858Z,9.50
2018-07-25T02:32:44.050Z,9.10
2018-07-25T02:37:47.277Z,9.47
2018-07-25T02:42:50.500Z,9.67
2018-07-25T02:47:53.654Z,8.07
2018-07-25T02:52:56.928Z,9.40
2018-07-25T02:57:59.929Z,9.73
2018-07-25T03:03:03.181Z,9.37
2018-07-25T03:08:06.398Z,9.40
2018-07-25T03:13:09.674Z,10.30
2018-07-25T03:18:12.821Z,9.80
2018-07-25T03:23:15.993Z,9.73
2018-07-25T03:28:19.250Z,10.23
2018-07-25T03:33:23.192Z,9.80
2018-07-25T03:38:26.936Z,9.40
2018-07-25T03:43:30.098Z,10.37
2018-07-25T03:48:33.266Z,10.03
2018-07-25T03:53:36.478Z,9.97
2018-07-25T03:58:39.634Z,10.50
2018-07-25T04:03:51.475Z,10.27
2018-07-25T04:08:54.707Z,10.57
2018-07-25T04:13:57.873Z,10.40
2018-07-25T04:19:01.102Z,9.93
2018-07-25T04:24:04.298Z,10.40
2018-07-25T04:29:07.521Z,11.00
2018-07-25T04:34:10.721Z,10.17
2018-07-25T04:39:13.903Z,10.67
2018-07-25T04:44:17.086Z,11.10
2018-07-25T04:49:20.286Z,11.10
2018-07-25T04:54:23.482Z,11.40
2018-07-25T04:59:26.681Z,10.97
2018-07-25T05:04:29.847Z,10.73
2018-07-25T05:09:34.047Z,11.57
2018-07-25T05:14:37.189Z,12.50
2018-07-25T05:19:40.354Z,10.60
2018-07-25T05:24:43.533Z,11.33
2018-07-25T05:29:46.697Z,11.67
2018-07-25T05:34:49.998Z,13.53
2018-07-25T05:39:53.185Z,13.60
2018-07-25T05:44:56.408Z,13.50
2018-07-25T05:49:59.579Z,12.83
2018-07-25T05:55:03.510Z,13.97
2018-07-25T06:00:06.710Z,14.63
2018-07-25T06:05:09.896Z,15.83
2018-07-25T06:10:13.062Z,15.73
2018-07-25T06:15:16.289Z,15.00
2018-07-25T06:20:19.550Z,15.57
2018-07-25T06:25:22.871Z,16.77
2018-07-25T06:30:26.105Z,15.87
2018-07-25T06:35:29.298Z,18.53
2018-07-25T06:40:32.487Z,17.33
2018-07-25T06:45:35.738Z,15.83
2018-07-25T06:50:39.005Z,16.27
2018-07-25T06:55:42.150Z,16.83
2018-07-25T07:00:45.341Z,15.63
2018-07-25T07:05:55.739Z,16.30
2018-07-25T07:10:59.978Z,14.17
2018-07-25T07:16:03.146Z,16.03
2018-07-25T07:21:06.390Z,16.03
2018-07-25T07:26:10.572Z,18.23
2018-07-25T07:31:13.850Z,19.07
2018-07-25T07:36:17.106Z,19.07
2018-07-25T07:41:20.315Z,18.87
2018-07-25T07:46:23.472Z,19.10
2018-07-25T07:51:26.730Z,18.50
2018-07-25T07:56:29.922Z,20.07
2018-07-25T08:01:33.086Z,15.83
2018-07-25T08:06:36.577Z,17.43
2018-07-25T08:11:39.942Z,16.73
2018-07-25T08:16:43.216Z,14.07
2018-07-25T08:21:46.469Z,13.10
2018-07-25T08:26:50.767Z,12.40
2018-07-25T08:31:53.974Z,14.33
2018-07-25T08:36:57.146Z,10.03
2018-07-25T08:42:00.372Z,9.93
2018-07-25T08:47:03.617Z,10.10
2018-07-25T08:52:06.931Z,10.13
2018-07-25T08:57:10.198Z,9.73
2018-07-25T09:02:14.238Z,9.03
2018-07-25T09:07:17.674Z,8.83
2018-07-25T09:12:20.848Z,7.40
2018-07-25T09:17:24.117Z,8.33
2018-07-25T09:22:28.118Z,8.47
2018-07-25T09:27:31.303Z,7.40
2018-07-25T09:32:34.503Z,7.50
2018-07-25T09:37:37.757Z,7.13
2018-07-25T09:42:40.962Z,6.43
2018-07-25T09:47:44.251Z,5.87
2018-07-25T09:52:48.457Z,6.40
2018-07-25T09:57:51.721Z,6.03
2018-07-25T10:02:55.018Z,5.93
2018-07-25T10:07:58.221Z,6.40
2018-07-25T10:13:01.538Z,6.40
2018-07-25T10:18:05.118Z,5.77
2018-07-25T10:23:08.366Z,4.87
2018-07-25T10:28:11.554Z,5.80
2018-07-25T10:33:14.816Z,5.63
2018-07-25T10:38:18.090Z,5.17
2018-07-25T10:43:21.309Z,5.03
2018-07-25T10:48:24.582Z,5.03
2018-07-25T10:53:29.829Z,4.57
2018-07-25T10:58:34.183Z,4.80
2018-07-25T11:03:37.462Z,4.40
2018-07-25T11:08:40.657Z,4.47
2018-07-25T11:13:43.967Z,4.70
2018-07-25T11:18:47.171Z,4.33
2018-07-25T11:23:55.806Z,4.63
2018-07-25T11:28:59.104Z,4.13
2018-07-25T11:34:04.833Z,4.73
2018-07-25T11:39:11.072Z,4.67
2018-07-25T11:44:16.117Z,4.40
2018-07-25T11:49:19.317Z,4.70
2018-07-25T11:54:22.716Z,4.47
2018-07-25T11:59:25.895Z,4.70
2018-07-25T12:04:29.165Z,4.37
2018-07-25T12:09:32.364Z,4.27
2018-07-25T12:14:35.522Z,4.90
2018-07-25T12:19:38.794Z,4.60
2018-07-25T12:24:42.037Z,4.10
2018-07-25T12:29:45.314Z,4.00
2018-07-25T12:34:48.998Z,4.07
2018-07-25T12:39:52.242Z,4.27
2018-07-25T12:44:55.426Z,3.77
2018-07-25T12:49:58.833Z,4.07
2018-07-25T12:55:02.076Z,3.40
2018-07-25T13:00:06.909Z,3.50
2018-07-25T13:05:10.125Z,3.57
2018-07-25T13:10:13.116Z,4.70
2018-07-25T13:15:16.379Z,4.10
2018-07-25T13:20:19.673Z,4.23
2018-07-25T13:25:22.836Z,4.07
2018-07-25T13:30:27.105Z,4.57
2018-07-25T13:35:30.083Z,4.37
2018-07-25T13:40:33.342Z,3.93
2018-07-25T13:45:36.754Z,3.83
2018-07-25T13:50:40.914Z,5.53
2018-07-25T13:55:44.198Z,4.90
2018-07-25T14:00:47.403Z,5.23
2018-07-25T14:05:50.604Z,4.70
2018-07-25T14:10:53.788Z,4.73
2018-07-25T14:15:56.997Z,4.80
2018-07-25T14:21:00.205Z,4.60
2018-07-25T14:26:03.423Z,4.93
2018-07-25T14:31:06.698Z,4.83
2018-07-25T14:36:09.981Z,4.40
2018-07-25T14:41:13.150Z,4.67
2018-07-25T14:46:16.313Z,4.83
2018-07-25T14:51:19.792Z,4.67
2018-07-25T14:56:22.861Z,4.57
2018-07-25T15:01:27.843Z,5.30
2018-07-25T15:06:31.521Z,4.60
2018-07-25T15:11:36.833Z,3.90
2018-07-25T15:16:40.130Z,2.63
2018-07-25T15:21:43.330Z,2.27
2018-07-25T15:26:47.146Z,2.87
2018-07-25T15:31:50.989Z,2.90
2018-07-25T15:36:54.254Z,4.17
2018-07-25T15:41:59.053Z,4.60
2018-07-25T15:47:02.892Z,5.03
2018-07-25T15:52:06.077Z,4.57
2018-07-25T15:57:10.305Z,4.47
2018-07-25T16:02:13.546Z,4.90
2018-07-25T16:07:16.849Z,4.90
2018-07-25T16:12:20.097Z,4.57
2018-07-25T16:17:25.085Z,4.47
2018-07-25T16:22:28.347Z,4.27
2018-07-25T16:27:31.646Z,3.90
2018-07-25T16:32:34.879Z,4.90
2018-07-25T16:37:38.129Z,4.97
2018-07-25T16:42:42.454Z,4.90
2018-07-25T16:47:46.012Z,4.50
2018-07-25T16:52:49.231Z,4.80
2018-07-25T16:57:53.238Z,4.37
2018-07-25T17:02:57.825Z,4.60
2018-07-25T17:08:01.118Z,4.80
2018-07-25T17:13:07.968Z,4.80
2018-07-25T17:18:11.334Z,4.73
2018-07-25T17:23:14.686Z,4.70
2018-07-25T17:28:19.286Z,5.20
2018-07-25T17:33:22.845Z,4.70
2018-07-25T17:38:28.610Z,4.70
2018-07-25T17:43:32.165Z,5.00
2018-07-25T17:48:35.736Z,4.50
2018-07-25T17:53:39.007Z,5.07
2018-07-25T17:58:42.181Z,4.73
2018-07-25T18:03:45.940Z,4.27
2018-07-25T18:08:49.082Z,4.20
2018-07-25T18:13:58.769Z,4.10
2018-07-25T18:19:01.982Z,4.53
2018-07-25T18:24:05.299Z,4.20
2018-07-25T18:29:08.579Z,3.80
2018-07-25T18:34:11.781Z,3.83
2018-07-25T18:39:16.520Z,3.77
2018-07-25T18:44:20.769Z,3.83
2018-07-25T18:49:24.113Z,3.37
2018-07-25T18:54:27.609Z,4.07
2018-07-25T18:59:31.050Z,3.47
2018-07-25T19:04:34.633Z,3.73
2018-07-25T19:09:44.756Z,4.20
2018-07-25T19:14:57.352Z,4.03
2018-07-25T19:20:02.097Z,4.00
2018-07-25T19:25:07.848Z,3.73
2018-07-25T19:30:11.166Z,3.73
2018-07-25T19:35:14.568Z,3.93
2018-07-25T19:40:17.817Z,3.77
2018-07-25T19:45:21.118Z,3.80
2018-07-25T19:50:24.442Z,3.77
2018-07-25T19:55:27.607Z,4.03
2018-07-25T20:00:30.955Z,4.13
2018-07-25T20:05:34.138Z,4.37
2018-07-25T20:10:37.473Z,4.30
2018-07-25T20:15:46.173Z,4.53
2018-07-25T20:20:51.430Z,4.50
2018-07-25T20:25:54.658Z,5.07
2018-07-25T20:30:57.879Z,6.83
2018-07-25T20:36:01.204Z,4.93
2018-07-25T20:41:04.435Z,7.40
2018-07-25T20:46:08.353Z,5.13
2018-07-25T20:51:11.592Z,4.60
2018-07-25T20:56:14.797Z,4.63
2018-07-25T21:01:17.997Z,4.40
2018-07-25T21:06:22.545Z,4.83
2018-07-25T21:11:26.242Z,4.67
2018-07-25T21:16:29.478Z,4.47
2018-07-25T21:21:32.714Z,4.40
2018-07-25T21:26:36.444Z,4.83
2018-07-25T21:31:39.619Z,4.67
2018-07-25T21:36:42.826Z,4.93
2018-07-25T21:41:46.044Z,5.20
2018-07-25T21:46:51.338Z,5.67
2018-07-25T21:51:54.582Z,4.70
2018-07-25T21:56:57.970Z,5.70
2018-07-25T22:02:01.238Z,5.83
2018-07-25T22:07:04.446Z,6.20
2018-07-25T22:12:07.726Z,5.70
2018-07-25T22:17:11.379Z,5.60
2018-07-25T22:22:14.629Z,5.80
2018-07-25T22:27:17.806Z,9.33
2018-07-25T22:32:21.193Z,5.93
2018-07-25T22:37:25.167Z,5.77
2018-07-25T22:42:28.337Z,5.70
2018-07-25T22:47:31.550Z,5.90
2018-07-25T22:52:36.890Z,6.10
2018-07-25T22:57:40.126Z,5.73
2018-07-25T23:02:43.345Z,5.77
2018-07-25T23:07:46.542Z,5.60
2018-07-25T23:12:49.749Z,6.17
2018-07-25T23:17:54.559Z,5.93
2018-07-25T23:22:59.142Z,5.70
2018-07-25T23:28:02.737Z,6.80
2018-07-25T23:33:06.463Z,6.90
2018-07-25T23:38:10.735Z,7.17
2018-07-25T23:43:13.975Z,7.40
2018-07-25T23:48:17.289Z,8.00
2018-07-25T23:53:20.468Z,7.30
2018-07-25T23:58:24.271Z,7.83
